Time,TemperatureF,DewpointF,PressureIn,WindDirection,WindDirectionDegrees,WindSpeedMPH,WindSpeedGustMPH,Humidity,HourlyPrecipIn,Conditions,Clouds,dailyrainin,SoftwareType,DateUTC
2013-01-02 00:00:00,13.9,6.2,30.30,SW,218,6.0,9.0,71,0.00,CLR,,0.00,WeatherDisplay:10.37,2013-01-02 06:00:00,
2013-01-02 00:10:00,13.8,6.1,30.30,SW,216,5.0,8.0,71,0.00,CLR,,0.00,WeatherDisplay:10.37,2013-01-02 06:10:00,
2013-01-02 00:15:00,13.8,6.4,30.30,SW,215,7.0,8.0,72,0.00,CLR,,0.00,WeatherDisplay:10.37,2013-01-02 06:15:00,
2013-01-02 00:20:00,13.8,6.4,30.30,SW,217,5.0,8.0,72,0.00,CLR,,0.00,WeatherDisplay:10.37,2013-01-02 06:20:00,
2013-01-02 00:25:00,13.6,6.2,30.30,SW,225,3.0,6.0,72,0.00,CLR,,0.00,WeatherDisplay:10.37,2013-01-02 06:25:00,
2013-01-02 00:30:00,13.5,6.5,30.29,WSW,237,3.0,6.0,73,0.00,CLR,,0.00,WeatherDisplay:10.37,2013-01-02 06:30:00,
2013-01-02 00:40:00,13.5,6.8,30.29,WSW,241,3.0,6.0,74,0.00,CLR,,0.00,WeatherDisplay:10.37,2013-01-02 06:40:00,
2013-01-02 00:45:00,13.3,6.6,30.29,WSW,246,3.0,6.0,74,0.00,CLR,,0.00,WeatherDisplay:10.37,2013-01-02 06:45:00,
2013-01-02 00:50:00,13.3,6.9,30.29,WSW,246,5.0,7.0,75,0.00,CLR,,0.00,WeatherDisplay:10.37,2013-01-02 06:50:00,
2013-01-02 00:55:00,13.3,6.8,30.29,WSW,237,5.0,6.0,75,0.00,CLR,,0.00,WeatherDisplay:10.37,2013-01-02 06:55:00,
2013-01-02 01:00:00,12.9,6.2,30.29,SW,227,2.0,5.0,74,0.00,CLR,,0.00,WeatherDisplay:10.37,2013-01-02 07:00:00,
2013-01-02 01:10:00,12.8,6.7,30.29,SW,233,1.0,3.0,76,0.00,CLR,,0.00,WeatherDisplay:10.37,2013-01-02 07:10:00,
2013-01-02 01:15:00,12.9,7.0,30.29,SW,228,2.0,5.0,77,0.00,CLR,,0.00,WeatherDisplay:10.37,2013-01-02 07:15:00,
2013-01-02 01:20:00,12.8,6.9,30.29,SW,224,2.0,4.0,77,0.00,CLR,,0.00,WeatherDisplay:10.37,2013-01-02 07:20:00,
2013-01-02 01:25:00,12.9,7.3,30.28,SW,223,1.0,4.0,78,0.00,CLR,,0.00,WeatherDisplay:10.37,2013-01-02 07:25:00,
2013-01-02 01:30:00,12.9,7.3,30.28,SW,224,2.0,3.0,78,0.00,CLR,,0.00,WeatherDisplay:10.37,2013-01-02 07:30:00,
2013-01-02 01:40:00,13.1,7.5,30.28,SW,230,2.0,5.0,78,0.00,CLR,,0.00,WeatherDisplay:10.37,2013-01-02 07:40:00,
2013-01-02 01:45:00,13.1,7.5,30.28,SW,223,5.0,6.0,78,0.00,CLR,,0.00,WeatherDisplay:10.37,2013-01-02 07:45:00,
2013-01-02 01:50:00,13.0,7.4,30.28,SW,217,2.0,5.0,78,0.00,CLR,,0.00,WeatherDisplay:10.37,2013-01-02 07:50:00,
2013-01-02 01:55:00,12.6,7.0,30.28,SW,217,2.0,4.0,78,0.00,CLR,,0.00,WeatherDisplay:10.37,2013-01-02 07:55:00,
2013-01-02 02:00:00,12.3,7.0,30.28,SW,217,2.0,3.0,79,0.00,CLR,,0.00,WeatherDisplay:10.37,2013-01-02 08:00:00,
2013-01-02 02:10:00,11.8,6.6,30.27,SW,217,2.0,3.0,79,0.00,CLR,,0.00,WeatherDisplay:10.37,2013-01-02 08:10:00,
2013-01-02 02:15:00,11.6,6.3,30.27,SW,217,2.0,4.0,79,0.00,CLR,,0.00,WeatherDisplay:10.37,2013-01-02 08:15:00,
2013-01-02 02:20:00,11.2,6.2,30.27,SW,216,2.0,4.0,80,0.00,CLR,,0.00,WeatherDisplay:10.37,2013-01-02 08:20:00,
2013-01-02 02:25:00,11.1,6.2,30.27,SW,215,2.0,4.0,80,0.00,CLR,,0.00,WeatherDisplay:10.37,2013-01-02 08:25:00,
2013-01-02 02:30:00,11.1,6.4,30.27,SW,215,1.0,3.0,81,0.00,CLR,,0.00,WeatherDisplay:10.37,2013-01-02 08:30:00,
2013-01-02 02:40:00,11.6,7.2,30.27,SW,221,3.0,5.0,82,0.00,CLR,,0.00,WeatherDisplay:10.37,2013-01-02 08:40:00,
2013-01-02 02:45:00,11.4,6.7,30.27,SW,218,3.0,5.0,81,0.00,CLR,,0.00,WeatherDisplay:10.37,2013-01-02 08:45:00,
2013-01-02 02:50:00,11.1,6.4,30.27,SSW,212,3.0,5.0,81,0.00,CLR,,0.00,WeatherDisplay:10.37,2013-01-02 08:50:00,
2013-01-02 02:55:00,10.9,6.2,30.27,SSW,206,5.0,6.0,81,0.00,CLR,,0.00,WeatherDisplay:10.37,2013-01-02 08:55:00,
2013-01-02 03:00:00,10.9,6.5,30.27,SSW,203,5.0,7.0,82,0.00,CLR,,0.00,WeatherDisplay:10.37,2013-01-02 09:00:00,
2013-01-02 03:10:00,10.9,6.5,30.27,SSW,209,5.0,6.0,82,0.00,CLR,,0.00,WeatherDisplay:10.37,2013-01-02 09:10:00,
2013-01-02 03:15:00,11.0,6.6,30.27,SSW,208,5.0,6.0,82,0.00,CLR,,0.00,WeatherDisplay:10.37,2013-01-02 09:15:00,
2013-01-02 03:20:00,11.1,6.7,30.27,SSW,206,5.0,6.0,82,0.00,CLR,,0.00,WeatherDisplay:10.37,2013-01-02 09:20:00,
2013-01-02 03:25:00,11.4,7.2,30.27,SSW,206,5.0,7.0,83,0.00,CLR,,0.00,WeatherDisplay:10.37,2013-01-02 09:25:00,
2013-01-02 03:30:00,11.4,7.2,30.27,SSW,205,5.0,7.0,83,0.00,CLR,,0.00,WeatherDisplay:10.37,2013-01-02 09:30:00,
2013-01-02 03:40:00,11.1,6.7,30.26,SSW,202,5.0,8.0,82,0.00,CLR,,0.00,WeatherDisplay:10.37,2013-01-02 09:40:00,
2013-01-02 03:45:00,11.3,7.1,30.26,SSW,200,6.0,7.0,83,0.00,CLR,,0.00,WeatherDisplay:10.37,2013-01-02 09:45:00,
2013-01-02 03:50:00,11.4,7.2,30.26,SSW,200,6.0,8.0,83,0.00,CLR,,0.00,WeatherDisplay:10.37,2013-01-02 09:50:00,
2013-01-02 03:55:00,11.4,7.0,30.26,SSW,202,6.0,8.0,82,0.00,CLR,,0.00,WeatherDisplay:10.37,2013-01-02 09:55:00,
2013-01-02 04:00:00,11.4,7.0,30.26,SSW,204,5.0,7.0,82,0.00,CLR,,0.00,WeatherDisplay:10.37,2013-01-02 10:00:00,
2013-01-02 04:10:00,12.1,7.9,30.26,SSW,208,6.0,9.0,83,0.00,CLR,,0.00,WeatherDisplay:10.37,2013-01-02 10:10:00,
2013-01-02 04:15:00,12.0,7.6,30.26,SSW,208,6.0,10.0,82,0.00,CLR,,0.00,WeatherDisplay:10.37,2013-01-02 10:15:00,
2013-01-02 04:20:00,11.7,7.3,30.25,SSW,208,6.0,7.0,82,0.00,CLR,,0.00,WeatherDisplay:10.37,2013-01-02 10:20:00,
2013-01-02 04:25:00,11.5,7.1,30.25,SSW,205,5.0,7.0,82,0.00,CLR,,0.00,WeatherDisplay:10.37,2013-01-02 10:25:00,
2013-01-02 04:30:00,11.3,6.9,30.24,SSW,206,5.0,7.0,82,0.00,CLR,,0.00,WeatherDisplay:10.37,2013-01-02 10:30:00,
2013-01-02 04:40:00,11.3,6.8,30.25,SSW,208,5.0,7.0,82,0.00,CLR,,0.00,WeatherDisplay:10.37,2013-01-02 10:40:00,
2013-01-02 04:45:00,11.4,7.2,30.25,SSW,204,6.0,8.0,83,0.00,CLR,,0.00,WeatherDisplay:10.37,2013-01-02 10:45:00,
2013-01-02 04:50:00,11.6,7.4,30.25,SSW,207,5.0,9.0,83,0.00,CLR,,0.00,WeatherDisplay:10.37,2013-01-02 10:50:00,
2013-01-02 04:55:00,11.6,7.4,30.25,SSW,208,6.0,8.0,83,0.00,CLR,,0.00,WeatherDisplay:10.37,2013-01-02 10:55:00,
2013-01-02 05:00:00,11.5,7.3,30.25,SSW,203,6.0,8.0,83,0.00,CLR,,0.00,WeatherDisplay:10.37,2013-01-02 11:00:00,
2013-01-02 05:10:00,11.6,7.4,30.25,SSW,203,6.0,9.0,83,0.00,CLR,,0.00,WeatherDisplay:10.37,2013-01-02 11:10:00,
2013-01-02 05:15:00,11.8,7.9,30.25,SSW,205,5.0,9.0,84,0.00,CLR,,0.00,WeatherDisplay:10.37,2013-01-02 11:15:00,
2013-01-02 05:20:00,12.1,8.2,30.25,SSW,206,6.0,7.0,84,0.00,CLR,,0.00,WeatherDisplay:10.37,2013-01-02 11:20:00,
2013-01-02 05:25:00,12.2,8.0,30.25,SSW,201,6.0,8.0,83,0.00,CLR,,0.00,WeatherDisplay:10.37,2013-01-02 11:25:00,
2013-01-02 05:30:00,12.1,7.9,30.25,SSW,201,6.0,9.0,83,0.00,CLR,,0.00,WeatherDisplay:10.37,2013-01-02 11:30:00,
2013-01-02 05:40:00,12.1,8.2,30.24,SSW,208,5.0,7.0,84,0.00,CLR,,0.00,WeatherDisplay:10.37,2013-01-02 11:40:00,
2013-01-02 05:45:00,11.8,7.6,30.24,SSW,204,6.0,7.0,83,0.00,CLR,,0.00,WeatherDisplay:10.37,2013-01-02 11:45:00,
2013-01-02 05:50:00,11.6,7.4,30.24,SSW,201,6.0,7.0,83,0.00,CLR,,0.00,WeatherDisplay:10.37,2013-01-02 11:50:00,
2013-01-02 05:55:00,11.6,7.7,30.24,SSW,201,6.0,7.0,84,0.00,CLR,,0.00,WeatherDisplay:10.37,2013-01-02 11:55:00,
2013-01-02 06:00:00,11.6,7.7,30.24,SSW,204,5.0,7.0,84,0.00,CLR,,0.00,WeatherDisplay:10.37,2013-01-02 12:00:00,
2013-01-02 06:10:00,11.6,7.7,30.24,SSW,208,5.0,8.0,84,0.00,CLR,,0.00,WeatherDisplay:10.37,2013-01-02 12:10:00,
2013-01-02 06:15:00,11.6,7.7,30.24,SSW,205,5.0,7.0,84,0.00,CLR,,0.00,WeatherDisplay:10.37,2013-01-02 12:15:00,
2013-01-02 06:20:00,11.4,7.5,30.24,SSW,202,5.0,7.0,84,0.00,CLR,,0.00,WeatherDisplay:10.37,2013-01-02 12:20:00,
2013-01-02 06:25:00,11.3,7.4,30.24,SSW,201,5.0,7.0,84,0.00,CLR,,0.00,WeatherDisplay:10.37,2013-01-02 12:25:00,
2013-01-02 06:30:00,11.3,7.4,30.24,SSW,201,5.0,7.0,84,0.00,CLR,,0.00,WeatherDisplay:10.37,2013-01-02 12:30:00,
2013-01-02 06:40:00,11.3,7.7,30.23,SSW,202,5.0,7.0,85,0.00,CLR,,0.00,WeatherDisplay:10.37,2013-01-02 12:40:00,
2013-01-02 06:45:00,11.3,7.7,30.23,SSW,201,3.0,7.0,85,0.00,CLR,,0.00,WeatherDisplay:10.37,2013-01-02 12:45:00,
2013-01-02 06:50:00,11.2,7.3,30.23,SSW,201,3.0,5.0,84,0.00,CLR,,0.00,WeatherDisplay:10.37,2013-01-02 12:50:00,
2013-01-02 07:00:00,11.3,7.7,30.22,SSW,200,5.0,6.0,85,0.00,CLR,,0.00,WeatherDisplay:10.37,2013-01-02 13:00:00,
2013-01-02 07:10:00,11.4,7.8,30.22,SSW,194,6.0,8.0,85,0.00,CLR,,0.00,WeatherDisplay:10.37,2013-01-02 13:10:00,
2013-01-02 07:15:00,11.6,8.0,30.22,SSW,192,6.0,9.0,85,0.00,CLR,,0.00,WeatherDisplay:10.37,2013-01-02 13:15:00,
2013-01-02 07:20:00,11.7,8.1,30.22,South,190,5.0,7.0,85,0.00,CLR,,0.00,WeatherDisplay:10.37,2013-01-02 13:20:00,
2013-01-02 07:25:00,12.0,8.3,30.22,South,191,5.0,8.0,85,0.00,CLR,,0.00,WeatherDisplay:10.37,2013-01-02 13:25:00,
2013-01-02 07:30:00,12.3,8.6,30.22,SSW,199,5.0,7.0,85,0.00,CLR,,0.00,WeatherDisplay:10.37,2013-01-02 13:30:00,
2013-01-02 07:40:00,12.7,9.0,30.22,SSW,199,6.0,10.0,85,0.00,CLR,,0.00,WeatherDisplay:10.37,2013-01-02 13:40:00,
2013-01-02 07:45:00,12.6,8.9,30.22,SSW,197,6.0,9.0,85,0.00,CLR,,0.00,WeatherDisplay:10.37,2013-01-02 13:45:00,
2013-01-02 07:50:00,12.6,8.9,30.22,SSW,196,5.0,8.0,85,0.00,CLR,,0.00,WeatherDisplay:10.37,2013-01-02 13:50:00,
2013-01-02 08:00:00,12.5,8.6,30.21,SSW,201,5.0,9.0,84,0.00,CLR,,0.00,WeatherDisplay:10.37,2013-01-02 14:00:00,
2013-01-02 08:10:00,12.6,8.7,30.21,SSW,202,6.0,7.0,84,0.00,CLR,,0.00,WeatherDisplay:10.37,2013-01-02 14:10:00,
2013-01-02 08:15:00,12.9,9.2,30.21,SSW,205,6.0,8.0,85,0.00,CLR,,0.00,WeatherDisplay:10.37,2013-01-02 14:15:00,
2013-01-02 08:20:00,13.3,9.6,30.21,SSW,205,7.0,9.0,85,0.00,CLR,,0.00,WeatherDisplay:10.37,2013-01-02 14:20:00,
2013-01-02 08:25:00,13.7,10.0,30.22,SSW,203,6.0,9.0,85,0.00,CLR,,0.00,WeatherDisplay:10.37,2013-01-02 14:25:00,
2013-01-02 08:30:00,14.1,10.5,30.22,SSW,205,7.0,9.0,85,0.00,CLR,,0.00,WeatherDisplay:10.37,2013-01-02 14:30:00,
2013-01-02 08:40:00,15.2,11.2,30.22,SSW,205,7.0,9.0,84,0.00,CLR,,0.00,WeatherDisplay:10.37,2013-01-02 14:40:00,
2013-01-02 08:45:00,15.6,11.6,30.22,SSW,207,7.0,8.0,84,0.00,CLR,,0.00,WeatherDisplay:10.37,2013-01-02 14:45:00,
2013-01-02 08:50:00,15.9,12.0,30.22,SSW,205,7.0,10.0,84,0.00,CLR,,0.00,WeatherDisplay:10.37,2013-01-02 14:50:00,
2013-01-02 08:55:00,16.3,12.0,30.22,SSW,201,8.0,12.0,83,0.00,CLR,,0.00,WeatherDisplay:10.37,2013-01-02 14:55:00,
2013-01-02 09:00:00,16.6,12.3,30.22,SSW,203,7.0,10.0,83,0.00,CLR,,0.00,WeatherDisplay:10.37,2013-01-02 15:00:00,
2013-01-02 09:10:00,17.1,12.5,30.22,SSW,202,7.0,10.0,82,0.00,CLR,,0.00,WeatherDisplay:10.37,2013-01-02 15:10:00,
2013-01-02 09:15:00,17.5,13.2,30.22,SSW,202,6.0,12.0,83,0.00,CLR,,0.00,WeatherDisplay:10.37,2013-01-02 15:15:00,
2013-01-02 09:20:00,17.9,13.3,30.22,SSW,203,7.0,11.0,82,0.00,CLR,,0.00,WeatherDisplay:10.37,2013-01-02 15:20:00,
2013-01-02 09:25:00,18.3,13.7,30.21,SSW,202,8.0,12.0,82,0.00,CLR,,0.00,WeatherDisplay:10.37,2013-01-02 15:25:00,
2013-01-02 09:30:00,18.6,13.7,30.21,SSW,205,7.0,9.0,81,0.00,CLR,,0.00,WeatherDisplay:10.37,2013-01-02 15:30:00,
2013-01-02 09:40:00,19.4,14.5,30.21,SSW,208,5.0,10.0,81,0.00,CLR,,0.00,WeatherDisplay:10.37,2013-01-02 15:40:00,
2013-01-02 09:45:00,19.8,14.6,30.21,SSW,205,7.0,12.0,80,0.00,CLR,,0.00,WeatherDisplay:10.37,2013-01-02 15:45:00,
2013-01-02 09:50:00,20.4,15.2,30.21,SSW,204,6.0,9.0,80,0.00,CLR,,0.00,WeatherDisplay:10.37,2013-01-02 15:50:00,
2013-01-02 10:00:00,21.3,15.8,30.21,SSW,199,7.0,10.0,79,0.00,CLR,,0.00,WeatherDisplay:10.37,2013-01-02 16:00:00,
2013-01-02 10:10:00,21.9,16.1,30.22,SSW,210,7.0,12.0,78,0.00,CLR,,0.00,WeatherDisplay:10.37,2013-01-02 16:10:00,
2013-01-02 10:15:00,22.3,16.5,30.23,SW,224,6.0,9.0,78,0.00,CLR,,0.00,WeatherDisplay:10.37,2013-01-02 16:15:00,
2013-01-02 10:20:00,22.6,16.5,30.23,SW,222,5.0,9.0,77,0.00,CLR,,0.00,WeatherDisplay:10.37,2013-01-02 16:20:00,
2013-01-02 10:25:00,23.3,17.2,30.24,SW,227,6.0,10.0,77,0.00,CLR,,0.00,WeatherDisplay:10.37,2013-01-02 16:25:00,
2013-01-02 10:30:00,23.9,17.4,30.24,WSW,238,5.0,9.0,76,0.00,CLR,,0.00,WeatherDisplay:10.37,2013-01-02 16:30:00,
2013-01-02 10:40:00,24.7,17.9,30.24,WSW,237,8.0,15.0,75,0.00,CLR,,0.00,WeatherDisplay:10.37,2013-01-02 16:40:00,
2013-01-02 10:45:00,24.8,17.7,30.24,SW,230,8.0,15.0,74,0.00,CLR,,0.00,WeatherDisplay:10.37,2013-01-02 16:45:00,
2013-01-02 10:50:00,24.9,17.8,30.23,SW,227,7.0,12.0,74,0.00,CLR,,0.00,WeatherDisplay:10.37,2013-01-02 16:50:00,
2013-01-02 10:55:00,24.9,17.8,30.23,SW,225,6.0,12.0,74,0.00,CLR,,0.00,WeatherDisplay:10.37,2013-01-02 16:55:00,
2013-01-02 11:00:00,25.5,18.3,30.23,SW,232,3.0,9.0,74,0.00,CLR,,0.00,WeatherDisplay:10.37,2013-01-02 17:00:00,
2013-01-02 11:10:00,26.2,18.4,30.23,SW,233,5.0,10.0,72,0.00,CLR,,0.00,WeatherDisplay:10.37,2013-01-02 17:10:00,
2013-01-02 11:15:00,26.4,18.6,30.22,WSW,237,5.0,10.0,72,0.00,CLR,,0.00,WeatherDisplay:10.37,2013-01-02 17:15:00,
2013-01-02 11:20:00,26.4,18.3,30.22,WSW,238,6.0,9.0,71,0.00,CLR,,0.00,WeatherDisplay:10.37,2013-01-02 17:20:00,
2013-01-02 11:30:00,26.3,18.2,30.22,SW,231,3.0,12.0,71,0.00,CLR,,0.00,WeatherDisplay:10.37,2013-01-02 17:30:00,
2013-01-02 11:40:00,27.0,18.5,30.21,SW,227,7.0,9.0,70,0.00,CLR,,0.00,WeatherDisplay:10.37,2013-01-02 17:40:00,
2013-01-02 11:45:00,27.0,18.5,30.21,SW,219,7.0,10.0,70,0.00,CLR,,0.00,WeatherDisplay:10.37,2013-01-02 17:45:00,
2013-01-02 11:50:00,26.9,18.1,30.20,SW,230,7.0,12.0,69,0.00,CLR,,0.00,WeatherDisplay:10.37,2013-01-02 17:50:00,
2013-01-02 11:55:00,27.2,18.7,30.20,SW,229,5.0,9.0,70,0.00,CLR,,0.00,WeatherDisplay:10.37,2013-01-02 17:55:00,
2013-01-02 12:00:00,27.2,18.3,30.19,SW,222,6.0,9.0,69,0.00,CLR,,0.00,WeatherDisplay:10.37,2013-01-02 18:00:00,
2013-01-02 12:10:00,27.1,18.6,30.19,SW,215,7.0,10.0,70,0.00,CLR,,0.00,WeatherDisplay:10.37,2013-01-02 18:10:00,
2013-01-02 12:15:00,27.3,18.5,30.19,SW,218,8.0,13.0,69,0.00,CLR,,0.00,WeatherDisplay:10.37,2013-01-02 18:15:00,
2013-01-02 12:20:00,27.5,18.7,30.19,SW,214,8.0,13.0,69,0.00,CLR,,0.00,WeatherDisplay:10.37,2013-01-02 18:20:00,
2013-01-02 12:25:00,27.7,18.9,30.19,SW,219,6.0,12.0,69,0.00,CLR,,0.00,WeatherDisplay:10.37,2013-01-02 18:25:00,
2013-01-02 12:30:00,28.3,19.4,30.19,SW,220,6.0,8.0,69,0.00,CLR,,0.00,WeatherDisplay:10.37,2013-01-02 18:30:00,
2013-01-02 12:40:00,28.9,19.7,30.19,SW,217,7.0,9.0,68,0.00,CLR,,0.00,WeatherDisplay:10.37,2013-01-02 18:40:00,
2013-01-02 12:45:00,29.1,19.8,30.19,SW,223,6.0,9.0,68,0.00,CLR,,0.00,WeatherDisplay:10.37,2013-01-02 18:45:00,
2013-01-02 12:50:00,29.3,19.7,30.18,WSW,237,5.0,10.0,67,0.00,CLR,,0.00,WeatherDisplay:10.37,2013-01-02 18:50:00,
2013-01-02 13:00:00,29.7,19.7,30.18,SW,236,6.0,12.0,66,0.00,CLR,,0.00,WeatherDisplay:10.37,2013-01-02 19:00:00,
2013-01-02 13:10:00,30.2,20.2,30.18,WSW,239,3.0,9.0,66,0.00,FEW,,0.00,WeatherDisplay:10.37,2013-01-02 19:10:00,
2013-01-02 13:15:00,30.1,19.7,30.17,WSW,243,6.0,9.0,65,0.00,FEW,,0.00,WeatherDisplay:10.37,2013-01-02 19:15:00,
2013-01-02 13:20:00,29.9,19.6,30.17,SW,224,6.0,12.0,65,0.00,FEW,,0.00,WeatherDisplay:10.37,2013-01-02 19:20:00,
2013-01-02 13:25:00,29.8,19.5,30.17,SW,215,7.0,13.0,65,0.00,FEW,,0.00,WeatherDisplay:10.37,2013-01-02 19:25:00,
2013-01-02 13:30:00,29.8,19.5,30.17,SW,218,6.0,12.0,65,0.00,FEW,,0.00,WeatherDisplay:10.37,2013-01-02 19:30:00,
2013-01-02 13:40:00,30.1,20.1,30.17,SW,234,6.0,9.0,66,0.00,FEW,,0.00,WeatherDisplay:10.37,2013-01-02 19:40:00,
2013-01-02 13:45:00,30.1,19.7,30.17,SW,229,8.0,10.0,65,0.00,FEW,,0.00,WeatherDisplay:10.37,2013-01-02 19:45:00,
2013-01-02 13:50:00,30.0,20.0,30.17,WSW,239,6.0,9.0,66,0.00,FEW,,0.00,WeatherDisplay:10.37,2013-01-02 19:50:00,
2013-01-02 13:55:00,30.0,20.4,30.17,WSW,237,6.0,9.0,67,0.00,FEW,,0.00,WeatherDisplay:10.37,2013-01-02 19:55:00,
2013-01-02 14:00:00,29.8,19.8,30.16,SW,216,6.0,12.0,66,0.00,FEW,,0.00,WeatherDisplay:10.37,2013-01-02 20:00:00,
2013-01-02 14:10:00,29.8,19.8,30.17,SW,227,6.0,9.0,66,0.00,FEW,,0.00,WeatherDisplay:10.37,2013-01-02 20:10:00,
2013-01-02 14:15:00,29.8,20.2,30.17,WSW,243,3.0,9.0,67,0.00,FEW,,0.00,WeatherDisplay:10.37,2013-01-02 20:15:00,
2013-01-02 14:20:00,29.7,19.7,30.17,WSW,258,3.0,8.0,66,0.00,FEW,,0.00,WeatherDisplay:10.37,2013-01-02 20:20:00,
2013-01-02 14:25:00,29.5,19.2,30.17,West,266,5.0,9.0,65,0.00,FEW,,0.00,WeatherDisplay:10.37,2013-01-02 20:25:00,
2013-01-02 14:30:00,29.0,18.7,30.17,West,276,5.0,7.0,65,0.00,FEW,,0.00,WeatherDisplay:10.37,2013-01-02 20:30:00,
2013-01-02 14:40:00,28.0,17.8,30.17,WNW,286,6.0,9.0,65,0.00,FEW,,0.00,WeatherDisplay:10.37,2013-01-02 20:40:00,
2013-01-02 14:45:00,27.7,17.4,30.17,West,281,7.0,10.0,65,0.00,FEW,,0.00,WeatherDisplay:10.37,2013-01-02 20:45:00,
2013-01-02 14:50:00,27.3,17.1,30.18,WNW,283,7.0,10.0,65,0.00,FEW,,0.00,WeatherDisplay:10.37,2013-01-02 20:50:00,
2013-01-02 14:55:00,27.2,17.3,30.18,WNW,285,5.0,7.0,66,0.00,FEW,,0.00,WeatherDisplay:10.37,2013-01-02 20:55:00,
2013-01-02 15:00:00,27.4,17.9,30.18,WNW,286,3.0,7.0,67,0.00,FEW,,0.00,WeatherDisplay:10.37,2013-01-02 21:00:00,
2013-01-02 15:10:00,28.5,18.2,30.18,West,269,6.0,9.0,65,0.00,OVC,,0.00,WeatherDisplay:10.37,2013-01-02 21:10:00,
2013-01-02 15:15:00,28.7,18.0,30.18,West,267,5.0,10.0,64,0.00,OVC,,0.00,WeatherDisplay:10.37,2013-01-02 21:15:00,
2013-01-02 15:20:00,28.6,17.6,30.18,West,260,5.0,8.0,63,0.00,OVC,,0.00,WeatherDisplay:10.37,2013-01-02 21:20:00,
2013-01-02 15:25:00,28.3,17.3,30.18,West,262,3.0,7.0,63,0.00,OVC,,0.00,WeatherDisplay:10.37,2013-01-02 21:25:00,
2013-01-02 15:30:00,27.9,17.3,30.19,West,264,2.0,6.0,64,0.00,OVC,,0.00,WeatherDisplay:10.37,2013-01-02 21:30:00,
2013-01-02 15:40:00,27.8,17.6,30.18,West,274,2.0,5.0,65,0.00,OVC,,0.00,WeatherDisplay:10.37,2013-01-02 21:40:00,
2013-01-02 15:45:00,27.8,17.9,30.18,West,268,2.0,4.0,66,0.00,OVC,,0.00,WeatherDisplay:10.37,2013-01-02 21:45:00,
2013-01-02 15:50:00,27.8,17.9,30.19,West,264,3.0,5.0,66,0.00,OVC,,0.00,WeatherDisplay:10.37,2013-01-02 21:50:00,
2013-01-02 15:55:00,27.9,18.0,30.18,West,261,2.0,6.0,66,0.00,OVC,,0.00,WeatherDisplay:10.37,2013-01-02 21:55:00,
2013-01-02 16:00:00,27.9,18.4,30.19,West,263,3.0,6.0,67,0.00,OVC,,0.00,WeatherDisplay:10.37,2013-01-02 22:00:00,
2013-01-02 16:10:00,28.5,18.6,30.19,WSW,255,3.0,6.0,66,0.00,OVC,,0.00,WeatherDisplay:10.37,2013-01-02 22:10:00,
2013-01-02 16:15:00,28.1,17.8,30.19,WSW,250,2.0,5.0,65,0.00,OVC,,0.00,WeatherDisplay:10.37,2013-01-02 22:15:00,
2013-01-02 16:20:00,27.5,18.0,30.19,WSW,250,2.0,5.0,67,0.00,OVC,,0.00,WeatherDisplay:10.37,2013-01-02 22:20:00,
2013-01-02 16:25:00,27.2,18.0,30.19,WSW,252,3.0,5.0,68,0.00,OVC,,0.00,WeatherDisplay:10.37,2013-01-02 22:25:00,
2013-01-02 16:30:00,27.1,18.3,30.20,West,266,3.0,5.0,69,0.00,OVC,,0.00,WeatherDisplay:10.37,2013-01-02 22:30:00,
2013-01-02 16:40:00,26.5,18.1,30.21,WNW,283,3.0,6.0,70,0.00,OVC,,0.00,WeatherDisplay:10.37,2013-01-02 22:40:00,
2013-01-02 16:45:00,26.2,17.8,30.21,WNW,284,5.0,6.0,70,0.00,OVC,,0.00,WeatherDisplay:10.37,2013-01-02 22:45:00,
2013-01-02 16:50:00,26.0,17.9,30.22,WNW,284,5.0,8.0,71,0.00,OVC,,0.00,WeatherDisplay:10.37,2013-01-02 22:50:00,
2013-01-02 16:55:00,26.0,17.9,30.22,West,281,5.0,8.0,71,0.00,OVC,,0.00,WeatherDisplay:10.37,2013-01-02 22:55:00,
2013-01-02 17:00:00,25.9,18.1,30.22,West,279,3.0,6.0,72,0.00,OVC,,0.00,WeatherDisplay:10.37,2013-01-02 23:00:00,
2013-01-02 17:10:00,25.8,18.0,30.22,West,267,3.0,5.0,72,0.00,OVC,,0.00,WeatherDisplay:10.37,2013-01-02 23:10:00,
2013-01-02 17:15:00,25.7,17.9,30.22,West,274,5.0,6.0,72,0.00,OVC,,0.00,WeatherDisplay:10.37,2013-01-02 23:15:00,
2013-01-02 17:20:00,25.6,17.8,30.23,West,279,5.0,6.0,72,0.00,OVC,,0.00,WeatherDisplay:10.37,2013-01-02 23:20:00,
2013-01-02 17:25:00,25.5,17.7,30.23,West,276,5.0,6.0,72,0.00,OVC,,0.00,WeatherDisplay:10.37,2013-01-02 23:25:00,
2013-01-02 17:30:00,25.4,17.6,30.23,West,268,2.0,4.0,72,0.00,OVC,,0.00,WeatherDisplay:10.37,2013-01-02 23:30:00,
2013-01-02 17:35:00,25.3,17.9,30.23,WSW,258,2.0,5.0,73,0.00,OVC,,0.00,WeatherDisplay:10.37,2013-01-02 23:35:00,
2013-01-02 17:40:00,25.2,17.8,30.23,West,266,3.0,5.0,73,0.00,OVC,,0.00,WeatherDisplay:10.37,2013-01-02 23:40:00,
2013-01-02 17:45:00,25.1,17.7,30.23,West,275,5.0,6.0,73,0.00,OVC,,0.00,WeatherDisplay:10.37,2013-01-02 23:45:00,
2013-01-02 17:50:00,24.9,17.5,30.24,West,278,3.0,6.0,73,0.00,OVC,,0.00,WeatherDisplay:10.37,2013-01-02 23:50:00,
2013-01-02 17:55:00,24.7,17.3,30.24,West,278,2.0,6.0,73,0.00,OVC,,0.00,WeatherDisplay:10.37,2013-01-02 23:55:00,
2013-01-02 18:00:00,24.5,17.1,30.24,West,276,2.0,4.0,73,0.00,OVC,,0.00,WeatherDisplay:10.37,2013-01-03 00:00:00,
2013-01-02 18:10:00,23.9,16.8,30.24,WSW,256,2.0,5.0,74,0.00,OVC,,0.00,WeatherDisplay:10.37,2013-01-03 00:10:00,
2013-01-02 18:15:00,23.8,16.7,30.24,WSW,256,2.0,5.0,74,0.00,OVC,,0.00,WeatherDisplay:10.37,2013-01-03 00:15:00,
2013-01-02 18:20:00,23.6,16.5,30.24,WSW,254,2.0,4.0,74,0.00,OVC,,0.00,WeatherDisplay:10.37,2013-01-03 00:20:00,
2013-01-02 18:25:00,23.5,16.7,30.24,WSW,251,2.0,5.0,75,0.00,OVC,,0.00,WeatherDisplay:10.37,2013-01-03 00:25:00,
2013-01-02 18:30:00,23.5,16.7,30.24,WSW,247,3.0,5.0,75,0.00,OVC,,0.00,WeatherDisplay:10.37,2013-01-03 00:30:00,
2013-01-02 18:35:00,23.4,16.6,30.25,WSW,245,3.0,5.0,75,0.00,OVC,,0.00,WeatherDisplay:10.37,2013-01-03 00:35:00,
2013-01-02 18:45:00,22.8,16.1,30.25,WSW,245,2.0,5.0,75,0.00,OVC,,0.00,WeatherDisplay:10.37,2013-01-03 00:45:00,
2013-01-02 18:50:00,22.7,16.3,30.25,WSW,245,3.0,6.0,76,0.00,OVC,,0.00,WeatherDisplay:10.37,2013-01-03 00:50:00,
2013-01-02 19:00:00,22.6,16.2,30.26,WSW,249,3.0,6.0,76,0.00,OVC,,0.00,WeatherDisplay:10.37,2013-01-03 01:00:00,
2013-01-02 19:10:00,22.6,16.2,30.26,WSW,248,2.0,6.0,76,0.00,CLR,,0.00,WeatherDisplay:10.37,2013-01-03 01:10:00,
2013-01-02 19:15:00,22.4,16.0,30.26,WSW,254,3.0,5.0,76,0.00,CLR,,0.00,WeatherDisplay:10.37,2013-01-03 01:15:00,
2013-01-02 19:20:00,22.2,15.8,30.26,WSW,250,2.0,5.0,76,0.00,CLR,,0.00,WeatherDisplay:10.37,2013-01-03 01:20:00,
2013-01-02 19:25:00,22.2,16.1,30.27,WSW,249,3.0,5.0,77,0.00,CLR,,0.00,WeatherDisplay:10.37,2013-01-03 01:25:00,
2013-01-02 19:30:00,22.0,15.9,30.27,WSW,254,3.0,6.0,77,0.00,CLR,,0.00,WeatherDisplay:10.37,2013-01-03 01:30:00,
2013-01-02 19:35:00,22.1,16.0,30.27,WSW,255,3.0,7.0,77,0.00,CLR,,0.00,WeatherDisplay:10.37,2013-01-03 01:35:00,
2013-01-02 19:40:00,22.3,16.2,30.27,WSW,252,3.0,7.0,77,0.00,CLR,,0.00,WeatherDisplay:10.37,2013-01-03 01:40:00,
2013-01-02 19:45:00,22.5,16.4,30.27,WSW,251,3.0,7.0,77,0.00,CLR,,0.00,WeatherDisplay:10.37,2013-01-03 01:45:00,
2013-01-02 19:50:00,22.8,16.7,30.27,WSW,255,5.0,8.0,77,0.00,CLR,,0.00,WeatherDisplay:10.37,2013-01-03 01:50:00,
2013-01-02 19:55:00,23.1,17.2,30.27,WSW,255,5.0,8.0,78,0.00,CLR,,0.00,WeatherDisplay:10.37,2013-01-03 01:55:00,
2013-01-02 20:00:00,23.3,17.5,30.28,WSW,256,6.0,8.0,78,0.00,CLR,,0.00,WeatherDisplay:10.37,2013-01-03 02:00:00,
2013-01-02 20:10:00,24.0,18.1,30.28,WSW,254,3.0,7.0,78,0.00,CLR,,0.00,WeatherDisplay:10.37,2013-01-03 02:10:00,
2013-01-02 20:15:00,24.2,18.3,30.28,WSW,258,2.0,6.0,78,0.00,CLR,,0.00,WeatherDisplay:10.37,2013-01-03 02:15:00,
2013-01-02 20:20:00,24.3,18.4,30.27,WSW,254,3.0,5.0,78,0.00,CLR,,0.00,WeatherDisplay:10.37,2013-01-03 02:20:00,
2013-01-02 20:25:00,24.4,18.5,30.27,West,259,2.0,4.0,78,0.00,CLR,,0.00,WeatherDisplay:10.37,2013-01-03 02:25:00,
2013-01-02 20:30:00,24.5,18.6,30.27,West,263,1.0,3.0,78,0.00,CLR,,0.00,WeatherDisplay:10.37,2013-01-03 02:30:00,
2013-01-02 20:40:00,24.7,18.8,30.28,WSW,252,3.0,6.0,78,0.00,CLR,,0.00,WeatherDisplay:10.37,2013-01-03 02:40:00,
2013-01-02 20:45:00,24.8,18.9,30.28,WSW,252,3.0,5.0,78,0.00,CLR,,0.00,WeatherDisplay:10.37,2013-01-03 02:45:00,
2013-01-02 20:50:00,24.9,19.0,30.28,WSW,249,3.0,6.0,78,0.00,CLR,,0.00,WeatherDisplay:10.37,2013-01-03 02:50:00,
2013-01-02 20:55:00,25.0,19.1,30.28,WSW,251,2.0,5.0,78,0.00,CLR,,0.00,WeatherDisplay:10.37,2013-01-03 02:55:00,
2013-01-02 21:00:00,25.1,19.2,30.28,WSW,251,2.0,5.0,78,0.00,CLR,,0.00,WeatherDisplay:10.37,2013-01-03 03:00:00,
2013-01-02 21:10:00,25.3,19.4,30.28,WSW,251,2.0,6.0,78,0.00,OVC,,0.00,WeatherDisplay:10.37,2013-01-03 03:10:00,
2013-01-02 21:15:00,25.4,19.5,30.28,WSW,247,3.0,6.0,78,0.00,OVC,,0.00,WeatherDisplay:10.37,2013-01-03 03:15:00,
2013-01-02 21:20:00,25.5,19.9,30.28,WSW,251,3.0,6.0,79,0.00,OVC,,0.00,WeatherDisplay:10.37,2013-01-03 03:20:00,
2013-01-02 21:25:00,25.6,20.0,30.29,WSW,254,2.0,4.0,79,0.00,OVC,,0.00,WeatherDisplay:10.37,2013-01-03 03:25:00,
2013-01-02 21:30:00,25.7,20.0,30.29,WSW,248,2.0,5.0,79,0.00,OVC,,0.00,WeatherDisplay:10.37,2013-01-03 03:30:00,
2013-01-02 21:50:00,26.0,20.4,30.29,West,268,5.0,6.0,79,0.00,OVC,,0.00,WeatherDisplay:10.37,2013-01-03 03:50:00,
2013-01-02 21:55:00,26.1,20.5,30.29,West,273,5.0,6.0,79,0.00,OVC,,0.00,WeatherDisplay:10.37,2013-01-03 03:55:00,
2013-01-02 22:00:00,26.2,20.6,30.29,West,272,3.0,6.0,79,0.00,OVC,,0.00,WeatherDisplay:10.37,2013-01-03 04:00:00,
2013-01-02 22:10:00,26.2,20.9,30.30,West,277,3.0,5.0,80,0.00,OVC,,0.00,WeatherDisplay:10.37,2013-01-03 04:10:00,
2013-01-02 22:15:00,26.2,20.6,30.30,West,274,2.0,5.0,79,0.00,OVC,,0.00,WeatherDisplay:10.37,2013-01-03 04:15:00,
2013-01-02 22:20:00,26.2,20.9,30.30,West,272,3.0,6.0,80,0.00,OVC,,0.00,WeatherDisplay:10.37,2013-01-03 04:20:00,
2013-01-02 22:25:00,26.3,21.0,30.31,West,275,3.0,5.0,80,0.00,OVC,,0.00,WeatherDisplay:10.37,2013-01-03 04:25:00,
2013-01-02 22:30:00,26.4,21.1,30.31,West,271,3.0,5.0,80,0.00,OVC,,0.00,WeatherDisplay:10.37,2013-01-03 04:30:00,
2013-01-02 22:40:00,26.4,21.1,30.31,West,274,3.0,5.0,80,0.00,OVC,,0.00,WeatherDisplay:10.37,2013-01-03 04:40:00,
2013-01-02 22:50:00,26.4,21.1,30.31,West,276,3.0,6.0,80,0.00,OVC,,0.00,WeatherDisplay:10.37,2013-01-03 04:50:00,
2013-01-02 22:55:00,26.5,21.1,30.31,West,275,3.0,6.0,80,0.00,OVC,,0.00,WeatherDisplay:10.37,2013-01-03 04:55:00,
2013-01-02 23:05:00,26.5,21.2,30.31,West,277,3.0,5.0,80,0.00,OVC,,0.00,WeatherDisplay:10.37,2013-01-03 05:05:00,
2013-01-02 23:10:00,26.5,21.5,30.31,West,277,3.0,5.0,81,0.00,OVC,,0.00,WeatherDisplay:10.37,2013-01-03 05:10:00,
2013-01-02 23:15:00,26.6,21.6,30.31,West,277,3.0,5.0,81,0.00,OVC,,0.00,WeatherDisplay:10.37,2013-01-03 05:15:00,
2013-01-02 23:20:00,26.6,21.6,30.31,West,277,3.0,5.0,81,0.00,OVC,,0.00,WeatherDisplay:10.37,2013-01-03 05:20:00,
2013-01-02 23:25:00,26.6,21.6,30.31,West,277,2.0,4.0,81,0.00,OVC,,0.00,WeatherDisplay:10.37,2013-01-03 05:25:00,
2013-01-02 23:30:00,26.7,21.7,30.31,West,277,2.0,4.0,81,0.00,OVC,,0.00,WeatherDisplay:10.37,2013-01-03 05:30:00,
2013-01-02 23:40:00,26.8,21.8,30.32,West,277,2.0,4.0,81,0.00,OVC,,0.00,WeatherDisplay:10.37,2013-01-03 05:40:00,
2013-01-02 23:45:00,26.9,21.8,30.32,West,277,2.0,4.0,81,0.00,OVC,,0.00,WeatherDisplay:10.37,2013-01-03 05:45:00,
2013-01-02 23:50:00,26.9,21.8,30.32,West,277,1.0,4.0,81,0.00,OVC,,0.00,WeatherDisplay:10.37,2013-01-03 05:50:00,
2013-01-02 23:55:00,26.9,21.9,30.32,West,277,2.0,3.0,81,0.00,OVC,,0.00,WeatherDisplay:10.37,2013-01-03 05:55:00,